Time;durP1;ratioP1;P1;durP2;ratioP2;P2;SDS_P1;SDS_P2;PMS_P1;PMS_P2;Temp;Humidity;BMP_temperature;BMP_pressure;BME280_temperature;BME280_humidity;BME280_pressure;Samples;Min_cycle;Max_cycle;Signal;HPM_P1;HPM_P2
2023/09/21 00:00:11;;;;;;;3.33;1.70;;;;;;;18.68;100.00;99452.06;692553;28;922;-63
2023/09/21 00:00:33;;;;;;;4.10;1.60;;;;;;;18.66;100.00;99451.31;692847;28;867;-62
2023/09/21 00:00:59;;;;;;;3.47;1.70;;;;;;;18.64;100.00;99455.84;690912;28;4813;-63
2023/09/21 00:01:23;;;;;;;3.15;1.50;;;;;;;18.76;100.00;99445.47;693124;28;1310;-64
2023/09/21 00:01:45;;;;;;;3.10;1.50;;;;;;;18.84;100.00;99456.47;691900;28;2212;-63
2023/09/21 00:02:06;;;;;;;3.33;1.63;;;;;;;18.80;100.00;99444.34;691572;28;1976;-62
2023/09/21 00:02:28;;;;;;;3.53;1.75;;;;;;;18.77;100.00;99450.69;693131;28;813;-63
2023/09/21 00:02:55;;;;;;;4.05;1.80;;;;;;;18.86;100.00;99451.97;691654;28;1734;-63
2023/09/21 00:03:15;;;;;;;3.88;1.70;;;;;;;18.86;100.00;99444.84;690980;28;1290;-64
2023/09/21 00:03:41;;;;;;;3.67;1.60;;;;;;;18.79;100.00;99451.47;685316;28;1156;-64
2023/09/21 00:04:01;;;;;;;4.57;1.60;;;;;;;18.75;100.00;99452.56;684824;28;4451;-63
2023/09/21 00:04:21;;;;;;;4.78;1.77;;;;;;;18.76;100.00;99450.78;685649;28;1299;-64
2023/09/21 00:04:42;;;;;;;3.43;1.90;;;;;;;18.78;100.00;99446.25;683434;28;2302;-64
2023/09/21 00:05:03;;;;;;;3.40;1.80;;;;;;;18.77;100.00;99453.31;684078;28;901;-64
2023/09/21 00:05:29;;;;;;;3.65;1.63;;;;;;;18.70;100.00;99444.88;689535;28;932;-62
2023/09/21 00:05:51;;;;;;;4.07;1.67;;;;;;;18.83;100.00;99450.34;691085;28;1797;-64
2023/09/21 00:06:13;;;;;;;3.30;1.70;;;;;;;18.86;100.00;99449.31;693064;28;1031;-63
2023/09/21 00:06:33;;;;;;;4.30;1.60;;;;;;;18.93;100.00;99444.50;693074;28;1187;-65
2023/09/21 00:06:54;;;;;;;3.47;1.50;;;;;;;18.94;100.00;99446.22;691827;28;4541;-64
2023/09/21 00:07:14;;;;;;;3.47;1.70;;;;;;;18.88;100.00;99450.09;692579;28;746;-63
2023/09/21 00:07:36;;;;;;;4.03;1.60;;;;;;;18.84;100.00;99448.53;692152;28;1156;-63
2023/09/21 00:07:57;;;;;;;3.28;1.50;;;;;;;18.83;100.00;99446.81;692081;28;1548;-63
2023/09/21 00:08:17;;;;;;;3.47;1.58;;;;;;;18.81;100.00;99448.72;692801;28;985;-63
2023/09/21 00:08:38;;;;;;;3.47;1.60;;;;;;;18.80;100.00;99450.53;693178;28;920;-62
2023/09/21 00:08:59;;;;;;;3.03;1.60;;;;;;;18.79;100.00;99450.59;691824;28;1809;-63
2023/09/21 00:09:20;;;;;;;3.67;1.73;;;;;;;18.75;100.00;99447.28;693155;28;1015;-62
2023/09/21 00:09:40;;;;;;;3.30;1.65;;;;;;;18.75;100.00;99451.69;693119;28;916;-63
2023/09/21 00:10:02;;;;;;;4.03;1.70;;;;;;;18.74;100.00;99455.31;692594;28;4408;-62
2023/09/21 00:10:23;;;;;;;4.55;1.80;;;;;;;18.76;100.00;99448.13;692846;28;1393;-63
2023/09/21 00:10:43;;;;;;;4.60;1.70;;;;;;;18.78;100.00;99456.84;691657;28;1508;-64
2023/09/21 00:11:07;;;;;;;2.55;1.45;;;;;;;18.82;100.00;99453.06;694778;28;1201;-65
2023/09/21 00:11:28;;;;;;;3.28;1.80;;;;;;;18.89;100.00;99452.63;690973;28;991;-64
2023/09/21 00:11:48;;;;;;;4.82;2.33;;;;;;;18.86;100.00;99447.50;690004;28;1824;-63
2023/09/21 00:12:10;;;;;;;3.87;1.53;;;;;;;18.82;100.00;99453.06;693437;28;919;-63
2023/09/21 00:12:31;;;;;;;3.92;1.77;;;;;;;18.78;100.00;99451.56;693259;28;1114;-64
2023/09/21 00:12:52;;;;;;;3.72;1.80;;;;;;;18.74;100.00;99450.03;691143;28;4370;-64
2023/09/21 00:13:12;;;;;;;5.03;1.80;;;;;;;18.72;100.00;99445.66;692686;28;1480;-64
2023/09/21 00:13:33;;;;;;;4.70;1.70;;;;;;;18.69;100.00;99444.97;691654;28;948;-64
2023/09/21 00:13:53;;;;;;;4.40;1.90;;;;;;;18.63;100.00;99454.13;691249;28;1712;-64
2023/09/21 00:14:14;;;;;;;3.07;1.80;;;;;;;18.77;100.00;99449.84;692691;28;1032;-64
2023/09/21 00:14:37;;;;;;;3.25;1.80;;;;;;;18.78;100.00;99448.91;692993;28;1018;-64
2023/09/21 00:14:58;;;;;;;3.65;1.80;;;;;;;18.72;100.00;99442.16;691200;28;1943;-62
2023/09/21 00:15:19;;;;;;;3.35;1.73;;;;;;;18.69;100.00;99450.28;693083;28;896;-64
2023/09/21 00:15:43;;;;;;;4.18;1.75;;;;;;;18.67;100.00;99445.06;691597;28;944;-63
2023/09/21 00:16:09;;;;;;;3.45;1.60;;;;;;;18.62;100.00;99441.84;693045;28;4364;-63
2023/09/21 00:16:29;;;;;;;3.42;1.58;;;;;;;18.58;100.00;99442.09;688861;28;3935;-64
2023/09/21 00:16:49;;;;;;;3.70;1.63;;;;;;;18.55;100.00;99444.00;688659;28;1911;-64
2023/09/21 00:17:11;;;;;;;4.13;1.50;;;;;;;18.53;100.00;99448.50;690511;28;821;-63
2023/09/21 00:17:36;;;;;;;3.53;1.67;;;;;;;18.52;100.00;99441.50;690200;28;1153;-64
2023/09/21 00:17:58;;;;;;;4.05;1.70;;;;;;;18.52;100.00;99443.31;688566;28;2021;-63
2023/09/21 00:18:21;;;;;;;3.47;1.70;;;;;;;18.48;100.00;99441.78;691108;28;990;-64
2023/09/21 00:18:42;;;;;;;3.20;1.60;;;;;;;18.44;100.00;99441.13;691874;28;1552;-63
2023/09/21 00:19:07;;;;;;;3.22;1.70;;;;;;;18.46;100.00;99443.66;692582;28;4767;-63
2023/09/21 00:19:27;;;;;;;3.83;1.80;;;;;;;18.41;100.00;99440.44;693066;28;1073;-64
2023/09/21 00:19:49;;;;;;;3.80;1.70;;;;;;;18.47;100.00;99442.72;691017;28;2439;-65
2023/09/21 00:20:17;;;;;;;3.38;1.60;;;;;;;18.49;100.00;99440.84;692659;28;1282;-64
2023/09/21 00:20:48;;;;;;;3.47;1.80;;;;;;;18.50;100.00;99443.41;692625;28;990;-63
2023/09/21 00:21:09;;;;;;;3.10;1.77;;;;;;;18.50;100.00;99440.75;692016;28;1010;-64
2023/09/21 00:21:31;;;;;;;3.90;1.70;;;;;;;18.52;100.00;99443.31;693166;28;951;-64
2023/09/21 00:21:54;;;;;;;3.13;1.60;;;;;;;18.51;100.00;99438.94;690853;28;4394;-64
2023/09/21 00:22:14;;;;;;;3.03;1.70;;;;;;;18.55;100.00;99440.47;693020;28;1985;-64
2023/09/21 00:22:35;;;;;;;3.20;1.70;;;;;;;18.52;100.00;99436.22;693459;28;895;-64
2023/09/21 00:22:56;;;;;;;3.33;1.50;;;;;;;18.52;100.00;99435.38;690362;28;2023;-64
2023/09/21 00:23:16;;;;;;;4.13;1.60;;;;;;;18.49;100.00;99441.69;692910;28;943;-64
2023/09/21 00:23:36;;;;;;;3.93;1.60;;;;;;;18.48;100.00;99437.31;693154;28;1240;-64
2023/09/21 00:24:00;;;;;;;3.43;1.60;;;;;;;18.52;100.00;99438.84;691582;28;1218;-64
2023/09/21 00:24:22;;;;;;;3.15;1.50;;;;;;;18.51;100.00;99429.22;689665;28;1030;-64
2023/09/21 00:24:43;;;;;;;3.30;1.50;;;;;;;18.48;100.00;99434.69;688647;28;2506;-64
2023/09/21 00:25:09;;;;;;;4.35;1.77;;;;;;;18.46;100.00;99433.94;689759;28;4537;-64
2023/09/21 00:25:30;;;;;;;3.70;1.60;;;;;;;18.44;100.00;99433.19;690257;28;899;-64
2023/09/21 00:25:55;;;;;;;4.00;1.75;;;;;;;18.44;100.00;99437.59;688981;28;1456;-64
2023/09/21 00:26:18;;;;;;;3.88;1.90;;;;;;;18.44;100.00;99432.31;690885;28;1387;-64
2023/09/21 00:26:41;;;;;;;3.45;1.60;;;;;;;18.47;100.00;99432.13;689882;28;1231;-64
2023/09/21 00:27:02;;;;;;;3.73;1.60;;;;;;;18.45;100.00;99432.22;686204;28;1267;-64
2023/09/21 00:27:22;;;;;;;3.50;1.70;;;;;;;18.43;100.00;99431.47;687009;28;846;-64
2023/09/21 00:27:44;;;;;;;3.43;2.00;;;;;;;18.44;100.00;99432.31;686368;28;1890;-64
2023/09/21 00:28:11;;;;;;;4.25;1.90;;;;;;;18.40;100.00;99425.47;684803;28;4420;-63
2023/09/21 00:28:32;;;;;;;4.05;1.60;;;;;;;18.41;100.00;99424.56;685290;28;1412;-64
2023/09/21 00:28:53;;;;;;;3.50;1.70;;;;;;;18.41;100.00;99430.69;686550;28;2350;-64
2023/09/21 00:29:13;;;;;;;2.78;1.55;;;;;;;18.40;100.00;99420.19;690200;28;968;-64
2023/09/21 00:29:35;;;;;;;3.40;1.60;;;;;;;18.38;100.00;99423.78;690064;28;1000;-64
2023/09/21 00:29:56;;;;;;;4.25;1.77;;;;;;;18.38;100.00;99434.34;686616;28;1438;-64
2023/09/21 00:30:19;;;;;;;5.00;1.87;;;;;;;18.36;100.00;99424.81;690773;28;1269;-64
2023/09/21 00:30:40;;;;;;;4.20;1.70;;;;;;;18.36;100.00;99430.97;692657;28;897;-64
2023/09/21 00:31:02;;;;;;;3.50;1.58;;;;;;;18.35;100.00;99426.59;690414;28;4508;-63
2023/09/21 00:31:22;;;;;;;4.18;1.60;;;;;;;18.35;100.00;99428.41;691332;28;1123;-64
2023/09/21 00:31:43;;;;;;;3.90;1.63;;;;;;;18.34;100.00;99427.53;685410;28;2110;-64
2023/09/21 00:32:04;;;;;;;3.43;1.60;;;;;;;18.37;100.00;99422.09;682644;28;1029;-64
2023/09/21 00:32:25;;;;;;;3.30;1.60;;;;;;;18.34;100.00;99422.25;683443;28;1230;-64
2023/09/21 00:32:47;;;;;;;4.10;1.73;;;;;;;18.34;100.00;99418.75;680907;28;1793;-64
2023/09/21 00:33:08;;;;;;;4.13;1.80;;;;;;;18.32;100.00;99418.84;683253;28;1387;-64
2023/09/21 00:33:30;;;;;;;3.85;1.75;;;;;;;18.41;100.00;99421.91;685626;28;882;-64
2023/09/21 00:33:51;;;;;;;3.33;1.70;;;;;;;18.57;100.00;99414.78;685867;28;4457;-64
2023/09/21 00:34:11;;;;;;;3.45;1.55;;;;;;;18.54;100.00;99412.34;690020;28;810;-64
2023/09/21 00:34:34;;;;;;;3.50;1.70;;;;;;;18.48;100.00;99418.81;692825;28;1013;-64
2023/09/21 00:34:58;;;;;;;3.42;1.50;;;;;;;18.48;100.00;99410.03;688421;28;1714;-63
2023/09/21 00:35:19;;;;;;;4.63;1.67;;;;;;;18.41;100.00;99422.75;687747;28;939;-65
2023/09/21 00:35:40;;;;;;;4.07;1.70;;;;;;;18.38;100.00;99405.25;689242;28;852;-64
2023/09/21 00:36:09;;;;;;;3.40;1.50;;;;;;;18.36;100.00;99415.09;688070;28;1785;-64
2023/09/21 00:36:30;;;;;;;3.10;1.50;;;;;;;18.37;100.00;99410.63;689007;28;1417;-63
2023/09/21 00:36:50;;;;;;;3.25;1.50;;;;;;;18.34;100.00;99411.66;685586;28;4352;-64
2023/09/21 00:37:11;;;;;;;3.53;1.73;;;;;;;18.37;100.00;99413.28;684217;28;1476;-64
2023/09/21 00:37:32;;;;;;;4.25;1.92;;;;;;;18.38;100.00;99417.63;682647;28;1353;-64
2023/09/21 00:37:52;;;;;;;4.25;1.80;;;;;;;18.37;100.00;99416.78;683716;28;2363;-64
2023/09/21 00:38:15;;;;;;;3.50;1.70;;;;;;;18.36;100.00;99409.78;685758;28;1216;-64
2023/09/21 00:38:37;;;;;;;2.92;1.52;;;;;;;18.32;100.00;99408.25;685479;28;1205;-64
2023/09/21 00:38:58;;;;;;;3.38;1.73;;;;;;;18.31;100.00;99411.00;686924;28;5544;-64
2023/09/21 00:39:18;;;;;;;3.53;1.60;;;;;;;18.26;100.00;99408.59;687696;28;838;-64
2023/09/21 00:39:39;;;;;;;3.40;1.63;;;;;;;18.23;100.00;99405.28;687084;28;931;-64
2023/09/21 00:39:59;;;;;;;4.35;1.70;;;;;;;18.24;100.00;99405.19;684332;28;5045;-64
2023/09/21 00:40:20;;;;;;;3.60;1.80;;;;;;;18.24;100.00;99409.66;685148;28;1276;-64
2023/09/21 00:40:44;;;;;;;4.78;1.90;;;;;;;18.27;100.00;99404.19;685803;28;2070;-64
2023/09/21 00:41:05;;;;;;;3.88;1.80;;;;;;;18.26;100.00;99408.59;687968;28;1533;-64
2023/09/21 00:41:25;;;;;;;3.58;1.73;;;;;;;18.24;100.00;99405.19;690363;28;1198;-63
2023/09/21 00:41:47;;;;;;;4.22;1.70;;;;;;;18.33;100.00;99411.75;689222;28;1553;-64
2023/09/21 00:42:08;;;;;;;4.18;1.80;;;;;;;18.46;100.00;99393.41;688294;28;1915;-66
2023/09/21 00:42:28;;;;;;;3.13;1.60;;;;;;;18.52;100.00;99404.44;688187;28;1145;-64
2023/09/21 00:42:51;;;;;;;3.35;1.88;;;;;;;18.50;100.00;99405.50;687934;28;1287;-64
2023/09/21 00:43:25;;;;;;;3.38;1.70;;;;;;;18.47;100.00;99406.53;688371;28;4784;-65
2023/09/21 00:43:47;;;;;;;4.03;1.80;;;;;;;18.46;100.00;99403.97;688223;28;1607;-64
2023/09/21 00:44:08;;;;;;;3.97;1.70;;;;;;;18.48;100.00;99407.38;689144;28;3111;-65
2023/09/21 00:44:29;;;;;;;4.78;1.73;;;;;;;18.53;100.00;99400.03;687854;28;1332;-64
2023/09/21 00:44:51;;;;;;;3.23;1.60;;;;;;;18.48;100.00;99402.09;689010;28;963;-65
2023/09/21 00:45:14;;;;;;;3.17;1.67;;;;;;;18.44;100.00;99400.56;688953;28;833;-65
2023/09/21 00:45:43;;;;;;;3.38;1.65;;;;;;;18.43;100.00;99404.13;691035;28;1039;-64
2023/09/21 00:46:04;;;;;;;2.83;1.50;;;;;;;18.36;100.00;99409.78;692642;28;4283;-64
2023/09/21 00:46:27;;;;;;;3.20;1.60;;;;;;;18.31;100.00;99393.31;689357;28;1650;-65
2023/09/21 00:46:48;;;;;;;4.28;1.70;;;;;;;18.27;100.00;99393.59;688594;28;1764;-61
2023/09/21 00:47:13;;;;;;;4.00;1.60;;;;;;;18.23;100.00;99400.84;690396;28;1252;-64
2023/09/21 00:47:34;;;;;;;3.40;1.60;;;;;;;18.23;100.00;99394.72;689267;28;968;-64
2023/09/21 00:47:54;;;;;;;4.27;1.60;;;;;;;18.22;100.00;99396.50;686826;28;2380;-64
2023/09/21 00:48:22;;;;;;;4.15;1.70;;;;;;;18.21;100.00;99397.44;687897;28;1717;-63
2023/09/21 00:48:43;;;;;;;3.00;1.80;;;;;;;18.17;100.00;99395.91;686186;28;1762;-64
2023/09/21 00:49:04;;;;;;;4.80;2.28;;;;;;;18.14;100.00;99390.81;687048;28;4300;-64
2023/09/21 00:49:25;;;;;;;3.55;1.83;;;;;;;18.13;100.00;99391.72;689368;28;1042;-64
2023/09/21 00:49:46;;;;;;;3.05;1.70;;;;;;;18.11;100.00;99388.31;689152;28;2274;-63
2023/09/21 00:50:10;;;;;;;3.25;1.70;;;;;;;18.13;100.00;99391.72;691666;28;1394;-64
2023/09/21 00:50:31;;;;;;;3.47;1.80;;;;;;;18.15;100.00;99388.06;689576;28;919;-64
2023/09/21 00:50:56;;;;;;;4.15;1.80;;;;;;;18.16;100.00;99388.91;687986;28;1427;-64
2023/09/21 00:51:19;;;;;;;3.92;1.77;;;;;;;18.15;100.00;99388.06;690328;28;919;-64
2023/09/21 00:51:41;;;;;;;3.50;1.60;;;;;;;18.15;100.00;99387.19;689760;28;1307;-64
2023/09/21 00:52:02;;;;;;;3.17;1.77;;;;;;;18.12;100.00;99380.28;688019;28;4596;-63
2023/09/21 00:52:22;;;;;;;3.25;1.60;;;;;;;18.11;100.00;99385.66;690186;28;1031;-63
2023/09/21 00:52:45;;;;;;;3.57;1.63;;;;;;;18.09;100.00;99391.03;688323;28;864;-64
2023/09/21 00:53:05;;;;;;;4.05;1.90;;;;;;;18.08;100.00;99388.47;688877;28;2186;-63
2023/09/21 00:53:28;;;;;;;3.43;1.80;;;;;;;18.06;100.00;99379.81;688730;28;1307;-64
2023/09/21 00:53:49;;;;;;;3.97;1.90;;;;;;;18.03;100.00;99379.03;686517;28;1440;-64
2023/09/21 00:54:12;;;;;;;3.63;1.75;;;;;;;18.06;100.00;99380.63;686108;28;1063;-64
2023/09/21 00:54:32;;;;;;;2.80;1.50;;;;;;;18.07;100.00;99381.47;686845;28;1422;-64
2023/09/21 00:54:55;;;;;;;3.33;1.70;;;;;;;18.06;100.00;99375.34;685544;28;4310;-64
2023/09/21 00:55:22;;;;;;;4.20;2.00;;;;;;;18.09;100.00;99385.75;688754;28;866;-64
2023/09/21 00:55:47;;;;;;;3.60;1.60;;;;;;;18.10;100.00;99378.69;687783;28;1404;-64
2023/09/21 00:56:11;;;;;;;3.60;1.70;;;;;;;18.09;100.00;99376.97;688221;28;1240;-64
2023/09/21 00:56:32;;;;;;;4.70;1.90;;;;;;;18.04;100.00;99380.72;689836;28;1630;-64
2023/09/21 00:56:52;;;;;;;3.90;1.97;;;;;;;18.02;100.00;99379.94;686863;28;1710;-64
2023/09/21 00:57:13;;;;;;;3.65;1.73;;;;;;;18.03;100.00;99375.53;687466;28;837;-64
2023/09/21 00:57:33;;;;;;;4.20;1.70;;;;;;;18.03;100.00;99376.38;689372;28;868;-64
2023/09/21 00:57:57;;;;;;;3.72;1.67;;;;;;;18.11;100.00;99373.31;686928;28;4599;-64
2023/09/21 00:58:19;;;;;;;3.33;1.60;;;;;;;18.13;100.00;99381.16;689458;28;1295;-64
2023/09/21 00:58:45;;;;;;;4.32;1.70;;;;;;;18.09;100.00;99379.63;688240;28;968;-63
2023/09/21 00:59:06;;;;;;;4.05;1.90;;;;;;;18.07;100.00;99373.56;688544;28;1305;-64
2023/09/21 00:59:29;;;;;;;4.03;1.88;;;;;;;18.04;100.00;99375.44;689830;28;900;-64
2023/09/21 00:59:49;;;;;;;3.15;1.63;;;;;;;18.03;100.00;99375.53;684540;28;1749;-64
2023/09/21 01:00:13;;;;;;;2.60;1.50;;;;;;;18.06;100.00;99377.16;686217;28;814;-64
2023/09/21 01:00:36;;;;;;;4.75;1.80;;;;;;;18.04;100.00;99375.44;683680;28;1519;-64
2023/09/21 01:00:59;;;;;;;3.30;1.63;;;;;;;18.07;100.00;99374.41;682249;28;4552;-64
2023/09/21 01:01:23;;;;;;;3.67;1.55;;;;;;;18.04;100.00;99378.09;685527;28;1311;-61
2023/09/21 01:01:44;;;;;;;4.70;1.70;;;;;;;18.01;100.00;99370.34;682220;28;1785;-63
2023/09/21 01:02:05;;;;;;;5.43;1.77;;;;;;;17.98;100.00;99374.94;684674;28;1145;-63
2023/09/21 01:04:12;;;;;;;3.45;1.70;;;;;;;17.96;100.00;99371.53;681029;28;4657;-64
2023/09/21 01:04:32;;;;;;;3.38;1.80;;;;;;;17.95;100.00;99368.03;681704;28;1336;-63
2023/09/21 01:04:53;;;;;;;3.40;1.70;;;;;;;17.95;100.00;99360.09;680575;28;1512;-62
2023/09/21 01:05:13;;;;;;;3.85;1.83;;;;;;;17.95;100.00;99368.03;681843;28;1607;-64
2023/09/21 01:05:34;;;;;;;3.80;1.90;;;;;;;18.02;100.00;99366.72;681649;29;929;-64
2023/09/21 01:05:55;;;;;;;4.45;1.90;;;;;;;18.06;100.00;99361.28;680148;28;1080;-64
2023/09/21 01:06:18;;;;;;;3.60;1.70;;;;;;;18.05;100.00;99365.72;681590;28;929;-64
2023/09/21 01:06:42;;;;;;;3.67;1.80;;;;;;;18.07;100.00;99368.25;684963;28;1479;-64
2023/09/21 01:07:22;;;;;;;3.67;2.00;;;;;;;18.16;100.00;99358.00;679954;28;4424;-63
2023/09/21 01:07:42;;;;;;;3.30;1.70;;;;;;;18.18;100.00;99357.94;681092;29;1047;-64
2023/09/21 01:08:05;;;;;;;3.53;1.70;;;;;;;18.17;100.00;99358.88;680489;28;1881;-63
2023/09/21 01:08:28;;;;;;;3.20;1.70;;;;;;;18.16;100.00;99359.81;680876;28;1387;-64
2023/09/21 01:08:49;;;;;;;4.13;1.60;;;;;;;18.16;100.00;99354.53;681590;28;1833;-63
2023/09/21 01:09:13;;;;;;;3.90;1.80;;;;;;;18.13;100.00;99367.94;684416;28;908;-62
2023/09/21 01:09:34;;;;;;;3.42;1.75;;;;;;;18.10;100.00;99358.38;683990;28;1015;-63
2023/09/21 01:09:55;;;;;;;3.55;1.52;;;;;;;18.09;100.00;99354.03;682801;28;5282;-65
2023/09/21 01:10:19;;;;;;;3.90;1.90;;;;;;;18.09;100.00;99361.09;684064;28;1381;-65
2023/09/21 01:10:53;;;;;;;3.58;1.70;;;;;;;18.09;100.00;99354.03;683736;28;814;-65
2023/09/21 01:11:15;;;;;;;4.05;1.65;;;;;;;18.10;100.00;99360.19;683895;28;1569;-65
2023/09/21 01:11:39;;;;;;;4.40;1.80;;;;;;;18.10;100.00;99355.72;684140;28;1051;-65
2023/09/21 01:12:05;;;;;;;3.97;1.83;;;;;;;18.09;100.00;99356.66;681090;28;2074;-64
2023/09/21 01:12:27;;;;;;;3.17;1.88;;;;;;;18.10;100.00;99360.19;684074;28;881;-65
2023/09/21 01:12:49;;;;;;;3.10;1.70;;;;;;;18.09;100.00;99350.53;681190;28;4385;-65
2023/09/21 01:13:12;;;;;;;3.67;1.83;;;;;;;18.06;100.00;99350.72;683374;28;4564;-65
2023/09/21 01:13:35;;;;;;;3.35;1.70;;;;;;;18.02;100.00;99358.78;681924;28;878;-64
2023/09/21 01:13:56;;;;;;;3.03;1.60;;;;;;;18.00;100.00;99355.41;681820;28;1889;-64
2023/09/21 01:14:16;;;;;;;2.80;1.60;;;;;;;17.99;100.00;99356.34;684025;28;1005;-63
2023/09/21 01:14:37;;;;;;;3.40;1.80;;;;;;;18.00;100.00;99354.56;684413;28;963;-63
2023/09/21 01:15:04;;;;;;;3.28;1.70;;;;;;;18.00;100.00;99352.75;682469;28;1594;-64
2023/09/21 01:15:25;;;;;;;3.88;1.60;;;;;;;18.02;100.00;99352.66;681168;29;1197;-62
2023/09/21 01:15:58;;;;;;;4.20;1.65;;;;;;;17.97;100.00;99350.28;676145;29;2598;-63
2023/09/21 01:16:18;;;;;;;3.70;1.80;;;;;;;17.95;100.00;99349.50;676972;29;5191;-64
2023/09/21 01:16:40;;;;;;;3.87;1.70;;;;;;;17.96;100.00;99353.88;678485;29;1254;-64
2023/09/21 01:17:00;;;;;;;4.05;1.77;;;;;;;17.98;100.00;99356.41;677808;29;1067;-63
2023/09/21 01:17:22;;;;;;;3.45;1.73;;;;;;;18.00;100.00;99358.03;680694;29;889;-65
2023/09/21 01:17:42;;;;;;;4.20;1.90;;;;;;;18.03;100.00;99355.22;683991;28;1351;-64
2023/09/21 01:18:04;;;;;;;3.63;1.90;;;;;;;18.02;100.00;99352.66;683243;28;2298;-62
2023/09/21 01:18:24;;;;;;;4.30;1.90;;;;;;;18.05;100.00;99357.78;683478;28;1368;-62
2023/09/21 01:18:46;;;;;;;3.67;1.53;;;;;;;18.05;100.00;99357.78;682613;28;1953;-63
2023/09/21 01:19:07;;;;;;;4.07;1.52;;;;;;;18.16;100.00;99349.25;683901;28;4279;-63
2023/09/21 01:19:28;;;;;;;3.85;1.60;;;;;;;18.17;100.00;99350.94;681052;29;992;-64
2023/09/21 01:19:51;;;;;;;3.78;1.70;;;;;;;18.27;100.00;99346.81;677740;29;1264;-63
2023/09/21 01:20:29;;;;;;;3.72;1.73;;;;;;;18.26;100.00;99349.56;676770;29;1301;-64
2023/09/21 01:20:51;;;;;;;3.50;1.60;;;;;;;18.21;100.00;99344.53;675406;29;2271;-65
2023/09/21 01:21:13;;;;;;;3.28;1.50;;;;;;;18.25;100.00;99353.13;676930;29;980;-65
2023/09/21 01:21:37;;;;;;;3.47;1.70;;;;;;;18.24;100.00;99341.72;679809;29;2115;-65
2023/09/21 01:22:06;;;;;;;2.83;1.70;;;;;;;18.28;100.00;99342.41;679568;29;4429;-65
2023/09/21 01:22:27;;;;;;;3.63;1.73;;;;;;;18.28;100.00;99342.41;680281;29;1918;-65
2023/09/21 01:23:08;;;;;;;3.95;1.70;;;;;;;18.20;100.00;99345.47;677998;29;2256;-64
2023/09/21 01:23:56;;;;;;;3.97;1.63;;;;;;;18.22;100.00;99346.25;683013;28;1523;-65
2023/09/21 01:24:17;;;;;;;3.50;1.85;;;;;;;18.21;100.00;99342.75;680132;29;1240;-64
2023/09/21 01:24:39;;;;;;;4.40;1.70;;;;;;;18.32;100.00;99349.22;680664;29;920;-65
2023/09/21 01:25:00;;;;;;;3.90;1.55;;;;;;;18.28;100.00;99343.25;679869;29;4425;-65
2023/09/21 01:25:20;;;;;;;2.97;1.70;;;;;;;18.31;100.00;99343.06;681262;28;1115;-65
2023/09/21 01:25:42;;;;;;;2.83;1.60;;;;;;;18.27;100.00;99341.53;682074;29;1404;-65
2023/09/21 01:26:05;;;;;;;4.15;1.90;;;;;;;18.23;100.00;99347.09;682046;28;864;-64
2023/09/21 01:26:25;;;;;;;4.18;1.80;;;;;;;18.20;100.00;99345.47;684331;28;1308;-64
2023/09/21 01:26:46;;;;;;;5.00;1.80;;;;;;;18.21;100.00;99341.91;680537;28;2207;-64
2023/09/21 01:27:08;;;;;;;4.78;1.77;;;;;;;18.19;100.00;99338.47;678333;29;1463;-64
2023/09/21 01:27:29;;;;;;;3.30;1.70;;;;;;;18.15;100.00;99336.94;677677;29;892;-65
2023/09/21 01:27:51;;;;;;;3.63;1.90;;;;;;;18.17;100.00;99345.66;677934;29;1649;-65
2023/09/21 01:28:18;;;;;;;4.43;1.98;;;;;;;18.12;100.00;99345.06;677254;29;4637;-65
2023/09/21 01:28:38;;;;;;;3.22;1.50;;;;;;;18.13;100.00;99342.31;680445;29;1060;-64
2023/09/21 01:28:59;;;;;;;3.70;1.80;;;;;;;18.12;100.00;99337.13;682058;28;2360;-64
2023/09/21 01:29:20;;;;;;;4.85;1.77;;;;;;;18.15;100.00;99337.81;683727;28;1056;-65
2023/09/21 01:29:41;;;;;;;4.03;1.75;;;;;;;18.14;100.00;99341.38;683588;28;1611;-64
2023/09/21 01:30:02;;;;;;;3.83;1.90;;;;;;;18.18;100.00;99337.63;680602;28;2045;-63
2023/09/21 01:30:22;;;;;;;4.03;1.85;;;;;;;18.20;100.00;99335.72;681523;29;1183;-63
2023/09/21 01:30:43;;;;;;;3.67;1.73;;;;;;;18.16;100.00;99344.78;681970;29;829;-64
2023/09/21 01:31:05;;;;;;;3.80;1.80;;;;;;;18.14;100.00;99340.56;676809;29;4299;-63
2023/09/21 01:31:26;;;;;;;3.95;1.88;;;;;;;18.12;100.00;99337.13;676100;29;1221;-64
2023/09/21 01:31:48;;;;;;;3.55;1.73;;;;;;;18.12;100.00;99342.41;677750;28;1264;-65
2023/09/21 01:32:09;;;;;;;3.20;1.70;;;;;;;18.11;100.00;99343.34;683416;28;1348;-62
2023/09/21 01:32:29;;;;;;;3.47;1.90;;;;;;;18.12;100.00;99342.41;682903;28;825;-64
2023/09/21 01:32:50;;;;;;;3.77;1.90;;;;;;;18.12;100.00;99337.13;680891;28;1774;-65
2023/09/21 01:33:11;;;;;;;3.53;1.70;;;;;;;18.13;100.00;99338.84;681982;28;908;-65
2023/09/21 01:33:33;;;;;;;3.95;1.80;;;;;;;18.12;100.00;99337.13;685468;28;1238;-64
2023/09/21 01:33:53;;;;;;;2.72;1.60;;;;;;;18.13;100.00;99341.47;681709;28;4459;-64
2023/09/21 01:34:14;;;;;;;3.30;1.60;;;;;;;18.12;100.00;99337.13;683412;28;809;-64
2023/09/21 01:34:35;;;;;;;2.97;1.60;;;;;;;18.11;100.00;99338.94;689060;28;928;-64
2023/09/21 01:34:55;;;;;;;3.57;1.80;;;;;;;18.18;100.00;99337.63;690111;28;1752;-65
2023/09/21 01:35:17;;;;;;;4.28;1.70;;;;;;;18.19;100.00;99335.81;692832;28;1114;-64
2023/09/21 01:35:43;;;;;;;4.90;1.65;;;;;;;18.14;100.00;99332.63;689139;28;1554;-64
2023/09/21 01:36:08;;;;;;;5.85;1.90;;;;;;;18.24;100.00;99333.78;688892;28;2452;-65
2023/09/21 01:36:29;;;;;;;3.95;1.60;;;;;;;18.25;100.00;99331.97;686365;28;1414;-64
2023/09/21 01:36:54;;;;;;;3.87;1.53;;;;;;;18.34;100.00;99331.44;682041;28;4484;-64
2023/09/21 01:37:15;;;;;;;3.40;1.80;;;;;;;18.30;100.00;99337.84;683676;28;1234;-65
2023/09/21 01:37:35;;;;;;;3.47;1.83;;;;;;;18.38;100.00;99343.56;686520;28;1290;-65
2023/09/21 01:37:56;;;;;;;4.05;1.75;;;;;;;18.38;100.00;99339.09;685523;28;1490;-65
2023/09/21 01:38:17;;;;;;;3.77;1.60;;;;;;;18.46;100.00;99335.19;684773;28;1199;-65
2023/09/21 01:38:38;;;;;;;4.07;1.60;;;;;;;18.47;100.00;99331.56;684908;28;1373;-65
2023/09/21 01:38:59;;;;;;;4.18;1.65;;;;;;;18.46;100.00;99330.72;684093;28;5521;-65
2023/09/21 01:39:19;;;;;;;3.87;1.73;;;;;;;18.44;100.00;99326.47;686879;28;964;-65
2023/09/21 01:39:40;;;;;;;3.17;1.60;;;;;;;18.42;100.00;99328.38;683022;28;850;-65
2023/09/21 01:40:01;;;;;;;3.50;1.67;;;;;;;18.43;100.00;99327.41;684419;28;4564;-65
2023/09/21 01:40:22;;;;;;;3.78;1.73;;;;;;;18.49;100.00;99329.72;687219;28;1945;-64
2023/09/21 01:40:46;;;;;;;3.95;1.70;;;;;;;18.53;100.00;99326.78;686693;28;1154;-65
2023/09/21 01:41:07;;;;;;;3.65;1.77;;;;;;;18.51;100.00;99328.69;688180;28;790;-65
2023/09/21 01:41:29;;;;;;;3.20;1.67;;;;;;;18.61;100.00;99317.53;689891;28;1637;-65
2023/09/21 01:41:53;;;;;;;3.42;1.60;;;;;;;18.59;100.00;99327.38;688711;28;1749;-65
2023/09/21 01:42:13;;;;;;;3.67;1.70;;;;;;;18.52;100.00;99325.06;685371;28;1912;-65
2023/09/21 01:42:36;;;;;;;3.70;1.67;;;;;;;18.51;100.00;99322.50;685536;28;940;-65
2023/09/21 01:42:58;;;;;;;4.68;1.80;;;;;;;18.46;100.00;99324.59;683987;28;4395;-65
2023/09/21 01:43:19;;;;;;;4.78;1.60;;;;;;;18.42;100.00;99323.06;685669;28;825;-65
2023/09/21 01:43:40;;;;;;;3.87;1.60;;;;;;;18.43;100.00;99330.06;687589;28;1008;-65
2023/09/21 01:44:00;;;;;;;3.25;1.50;;;;;;;18.43;100.00;99325.63;687513;28;1702;-65
2023/09/21 01:44:21;;;;;;;3.57;1.60;;;;;;;18.39;100.00;99324.09;687043;28;3061;-63
2023/09/21 01:44:42;;;;;;;3.38;1.63;;;;;;;18.34;100.00;99321.72;689668;28;794;-64
2023/09/21 01:45:03;;;;;;;3.40;1.60;;;;;;;18.29;100.00;99323.78;691711;28;1837;-64
2023/09/21 01:45:23;;;;;;;3.92;1.70;;;;;;;18.29;100.00;99323.78;689018;28;953;-64
2023/09/21 01:45:49;;;;;;;3.97;1.73;;;;;;;18.26;100.00;99321.31;687056;28;1604;-65
2023/09/21 01:46:10;;;;;;;3.72;1.67;;;;;;;18.22;100.00;99327.75;686275;28;4933;-65
2023/09/21 01:46:33;;;;;;;3.93;1.80;;;;;;;18.22;100.00;99322.44;687324;28;801;-64
2023/09/21 01:46:54;;;;;;;4.28;1.75;;;;;;;18.29;100.00;99321.16;685871;28;1591;-65
2023/09/21 01:47:15;;;;;;;4.35;1.75;;;;;;;18.31;100.00;99321.91;688012;28;1138;-65
2023/09/21 01:47:36;;;;;;;3.13;1.80;;;;;;;18.28;100.00;99313.31;690022;28;1022;-64
2023/09/21 01:47:56;;;;;;;3.53;1.70;;;;;;;18.28;100.00;99324.72;689947;28;2441;-65
2023/09/21 01:48:18;;;;;;;5.20;1.87;;;;;;;18.27;100.00;99323.00;692361;28;856;-65